sensor_id;sensor_type;location;lat;lon;timestamp;P1;durP1;ratioP1;P2;durP2;ratioP2
22160;SDS011;49035;48.812;11.762;2023-09-18T00:01:39;18.00;;;14.27;;
22160;SDS011;49035;48.812;11.762;2023-09-18T00:04:04;19.38;;;13.48;;
22160;SDS011;49035;48.812;11.762;2023-09-18T00:06:30;25.58;;;14.85;;
22160;SDS011;49035;48.812;11.762;2023-09-18T00:08:57;16.85;;;13.13;;
22160;SDS011;49035;48.812;11.762;2023-09-18T00:11:23;17.98;;;13.02;;
22160;SDS011;49035;48.812;11.762;2023-09-18T00:13:48;16.00;;;11.27;;
22160;SDS011;49035;48.812;11.762;2023-09-18T00:16:14;18.02;;;12.75;;
22160;SDS011;49035;48.812;11.762;2023-09-18T00:18:40;19.30;;;12.57;;
22160;SDS011;49035;48.812;11.762;2023-09-18T00:21:06;17.35;;;12.73;;
22160;SDS011;49035;48.812;11.762;2023-09-18T00:23:32;17.10;;;12.82;;
22160;SDS011;49035;48.812;11.762;2023-09-18T00:26:00;17.70;;;13.00;;
22160;SDS011;49035;48.812;11.762;2023-09-18T00:28:25;19.02;;;13.63;;
22160;SDS011;49035;48.812;11.762;2023-09-18T00:30:51;18.58;;;12.35;;
22160;SDS011;49035;48.812;11.762;2023-09-18T00:33:16;19.25;;;13.23;;
22160;SDS011;49035;48.812;11.762;2023-09-18T00:35:50;20.00;;;13.25;;
22160;SDS011;49035;48.812;11.762;2023-09-18T00:38:17;17.75;;;13.45;;
22160;SDS011;49035;48.812;11.762;2023-09-18T00:40:44;21.10;;;14.20;;
22160;SDS011;49035;48.812;11.762;2023-09-18T00:43:10;20.40;;;13.00;;
22160;SDS011;49035;48.812;11.762;2023-09-18T00:45:38;22.23;;;13.00;;
22160;SDS011;49035;48.812;11.762;2023-09-18T00:48:07;15.38;;;12.20;;
22160;SDS011;49035;48.812;11.762;2023-09-18T00:50:33;20.23;;;13.73;;
22160;SDS011;49035;48.812;11.762;2023-09-18T00:52:59;17.98;;;12.43;;
22160;SDS011;49035;48.812;11.762;2023-09-18T00:55:26;16.15;;;11.68;;
22160;SDS011;49035;48.812;11.762;2023-09-18T00:57:54;16.13;;;11.80;;
22160;SDS011;49035;48.812;11.762;2023-09-18T01:00:20;13.07;;;10.13;;
22160;SDS011;49035;48.812;11.762;2023-09-18T01:02:47;17.27;;;12.80;;
22160;SDS011;49035;48.812;11.762;2023-09-18T01:05:13;18.92;;;11.70;;
22160;SDS011;49035;48.812;11.762;2023-09-18T01:07:41;14.77;;;11.02;;
22160;SDS011;49035;48.812;11.762;2023-09-18T01:10:07;17.25;;;11.77;;
22160;SDS011;49035;48.812;11.762;2023-09-18T01:12:39;21.65;;;13.45;;
22160;SDS011;49035;48.812;11.762;2023-09-18T01:15:11;18.58;;;12.50;;
22160;SDS011;49035;48.812;11.762;2023-09-18T01:17:51;19.55;;;12.93;;
22160;SDS011;49035;48.812;11.762;2023-09-18T01:20:17;14.65;;;11.85;;
22160;SDS011;49035;48.812;11.762;2023-09-18T01:22:42;17.80;;;13.30;;
22160;SDS011;49035;48.812;11.762;2023-09-18T01:25:08;20.77;;;13.43;;
22160;SDS011;49035;48.812;11.762;2023-09-18T01:27:34;18.55;;;13.18;;
22160;SDS011;49035;48.812;11.762;2023-09-18T01:29:59;22.80;;;13.77;;
22160;SDS011;49035;48.812;11.762;2023-09-18T01:32:26;27.92;;;14.48;;
22160;SDS011;49035;48.812;11.762;2023-09-18T01:34:55;17.70;;;12.93;;
22160;SDS011;49035;48.812;11.762;2023-09-18T01:37:31;19.75;;;13.90;;
22160;SDS011;49035;48.812;11.762;2023-09-18T01:39:57;18.58;;;13.40;;
22160;SDS011;49035;48.812;11.762;2023-09-18T01:42:25;21.27;;;14.48;;
22160;SDS011;49035;48.812;11.762;2023-09-18T01:44:54;19.08;;;12.80;;
22160;SDS011;49035;48.812;11.762;2023-09-18T01:47:20;17.83;;;12.93;;
22160;SDS011;49035;48.812;11.762;2023-09-18T01:49:48;21.35;;;13.32;;
22160;SDS011;49035;48.812;11.762;2023-09-18T01:52:14;21.15;;;13.95;;
22160;SDS011;49035;48.812;11.762;2023-09-18T01:54:40;20.58;;;13.77;;
22160;SDS011;49035;48.812;11.762;2023-09-18T01:57:05;16.23;;;11.65;;
22160;SDS011;49035;48.812;11.762;2023-09-18T01:59:34;15.60;;;11.43;;
22160;SDS011;49035;48.812;11.762;2023-09-18T02:02:00;11.95;;;8.73;;
22160;SDS011;49035;48.812;11.762;2023-09-18T02:04:28;14.02;;;9.93;;
22160;SDS011;49035;48.812;11.762;2023-09-18T02:06:54;17.17;;;12.23;;
22160;SDS011;49035;48.812;11.762;2023-09-18T02:09:19;13.80;;;10.38;;
22160;SDS011;49035;48.812;11.762;2023-09-18T02:11:46;18.23;;;11.75;;
22160;SDS011;49035;48.812;11.762;2023-09-18T02:14:12;16.92;;;11.65;;
22160;SDS011;49035;48.812;11.762;2023-09-18T02:16:39;35.15;;;13.18;;
22160;SDS011;49035;48.812;11.762;2023-09-18T02:19:09;15.90;;;10.23;;
22160;SDS011;49035;48.812;11.762;2023-09-18T02:21:36;22.45;;;11.52;;
22160;SDS011;49035;48.812;11.762;2023-09-18T02:24:02;23.15;;;14.68;;
22160;SDS011;49035;48.812;11.762;2023-09-18T02:26:28;22.83;;;13.95;;
22160;SDS011;49035;48.812;11.762;2023-09-18T02:28:57;23.63;;;14.98;;
22160;SDS011;49035;48.812;11.762;2023-09-18T02:31:23;19.92;;;13.23;;
22160;SDS011;49035;48.812;11.762;2023-09-18T02:33:49;18.92;;;14.73;;
22160;SDS011;49035;48.812;11.762;2023-09-18T02:36:15;22.40;;;15.10;;
22160;SDS011;49035;48.812;11.762;2023-09-18T02:38:41;26.63;;;16.25;;
22160;SDS011;49035;48.812;11.762;2023-09-18T02:41:07;22.88;;;15.75;;
22160;SDS011;49035;48.812;11.762;2023-09-18T02:43:33;27.85;;;16.15;;
22160;SDS011;49035;48.812;11.762;2023-09-18T02:45:59;17.58;;;13.10;;
22160;SDS011;49035;48.812;11.762;2023-09-18T02:48:24;20.42;;;13.23;;
22160;SDS011;49035;48.812;11.762;2023-09-18T02:50:50;14.18;;;10.07;;
22160;SDS011;49035;48.812;11.762;2023-09-18T02:53:20;15.05;;;10.48;;
22160;SDS011;49035;48.812;11.762;2023-09-18T02:55:53;27.13;;;10.30;;
22160;SDS011;49035;48.812;11.762;2023-09-18T02:58:20;19.27;;;12.55;;
22160;SDS011;49035;48.812;11.762;2023-09-18T03:00:47;21.02;;;12.32;;
22160;SDS011;49035;48.812;11.762;2023-09-18T03:03:14;19.55;;;13.07;;
22160;SDS011;49035;48.812;11.762;2023-09-18T03:05:41;23.15;;;13.77;;
22160;SDS011;49035;48.812;11.762;2023-09-18T03:08:07;24.77;;;14.25;;
22160;SDS011;49035;48.812;11.762;2023-09-18T03:10:34;26.98;;;16.90;;
22160;SDS011;49035;48.812;11.762;2023-09-18T03:13:01;26.45;;;18.20;;
22160;SDS011;49035;48.812;11.762;2023-09-18T03:15:27;27.50;;;17.75;;
22160;SDS011;49035;48.812;11.762;2023-09-18T03:17:53;30.83;;;16.02;;
22160;SDS011;49035;48.812;11.762;2023-09-18T03:20:21;19.02;;;13.63;;
22160;SDS011;49035;48.812;11.762;2023-09-18T03:22:47;21.10;;;12.90;;
22160;SDS011;49035;48.812;11.762;2023-09-18T03:25:13;18.42;;;12.90;;
22160;SDS011;49035;48.812;11.762;2023-09-18T03:27:39;18.40;;;13.18;;
22160;SDS011;49035;48.812;11.762;2023-09-18T03:30:04;20.70;;;13.38;;
22160;SDS011;49035;48.812;11.762;2023-09-18T03:32:31;13.95;;;9.82;;
22160;SDS011;49035;48.812;11.762;2023-09-18T03:34:57;22.88;;;13.93;;
22160;SDS011;49035;48.812;11.762;2023-09-18T03:37:23;24.98;;;14.85;;
22160;SDS011;49035;48.812;11.762;2023-09-18T03:39:48;28.08;;;17.10;;
22160;SDS011;49035;48.812;11.762;2023-09-18T03:42:14;23.48;;;15.35;;
22160;SDS011;49035;48.812;11.762;2023-09-18T03:44:39;18.73;;;13.18;;
22160;SDS011;49035;48.812;11.762;2023-09-18T03:47:05;23.50;;;13.63;;
22160;SDS011;49035;48.812;11.762;2023-09-18T03:49:31;17.85;;;12.93;;
22160;SDS011;49035;48.812;11.762;2023-09-18T03:51:56;23.25;;;13.65;;
22160;SDS011;49035;48.812;11.762;2023-09-18T03:54:22;24.45;;;15.05;;
22160;SDS011;49035;48.812;11.762;2023-09-18T03:56:47;28.25;;;15.77;;
22160;SDS011;49035;48.812;11.762;2023-09-18T03:59:13;25.05;;;15.35;;
22160;SDS011;49035;48.812;11.762;2023-09-18T04:01:39;27.20;;;14.98;;
22160;SDS011;49035;48.812;11.762;2023-09-18T04:04:05;26.63;;;15.52;;
22160;SDS011;49035;48.812;11.762;2023-09-18T04:06:40;24.95;;;16.13;;
22160;SDS011;49035;48.812;11.762;2023-09-18T04:09:08;24.38;;;16.00;;
22160;SDS011;49035;48.812;11.762;2023-09-18T04:11:33;26.05;;;16.73;;
22160;SDS011;49035;48.812;11.762;2023-09-18T04:14:00;26.60;;;16.80;;
22160;SDS011;49035;48.812;11.762;2023-09-18T04:16:26;28.27;;;17.58;;
22160;SDS011;49035;48.812;11.762;2023-09-18T04:19:02;29.38;;;16.58;;
22160;SDS011;49035;48.812;11.762;2023-09-18T04:21:28;24.45;;;16.48;;
22160;SDS011;49035;48.812;11.762;2023-09-18T04:23:54;28.05;;;18.00;;
22160;SDS011;49035;48.812;11.762;2023-09-18T04:26:26;30.35;;;18.90;;
22160;SDS011;49035;48.812;11.762;2023-09-18T04:28:56;34.75;;;19.52;;
22160;SDS011;49035;48.812;11.762;2023-09-18T04:31:22;29.00;;;19.08;;
22160;SDS011;49035;48.812;11.762;2023-09-18T04:33:48;29.17;;;18.95;;
22160;SDS011;49035;48.812;11.762;2023-09-18T04:36:14;32.88;;;17.92;;
22160;SDS011;49035;48.812;11.762;2023-09-18T04:38:40;30.70;;;18.60;;
22160;SDS011;49035;48.812;11.762;2023-09-18T04:41:05;26.50;;;18.00;;
22160;SDS011;49035;48.812;11.762;2023-09-18T04:43:35;27.33;;;17.85;;
22160;SDS011;49035;48.812;11.762;2023-09-18T04:46:02;32.30;;;19.77;;
22160;SDS011;49035;48.812;11.762;2023-09-18T04:48:29;32.10;;;19.67;;
22160;SDS011;49035;48.812;11.762;2023-09-18T04:50:59;28.42;;;18.05;;
22160;SDS011;49035;48.812;11.762;2023-09-18T04:53:25;27.70;;;17.70;;
22160;SDS011;49035;48.812;11.762;2023-09-18T04:55:54;31.25;;;17.70;;
22160;SDS011;49035;48.812;11.762;2023-09-18T04:58:20;25.58;;;16.63;;
22160;SDS011;49035;48.812;11.762;2023-09-18T05:00:46;28.30;;;16.77;;
22160;SDS011;49035;48.812;11.762;2023-09-18T05:03:11;28.23;;;16.88;;
22160;SDS011;49035;48.812;11.762;2023-09-18T05:05:37;28.58;;;17.88;;
22160;SDS011;49035;48.812;11.762;2023-09-18T05:08:05;35.97;;;20.35;;
22160;SDS011;49035;48.812;11.762;2023-09-18T05:10:35;32.47;;;21.52;;
22160;SDS011;49035;48.812;11.762;2023-09-18T05:13:01;36.42;;;22.52;;
22160;SDS011;49035;48.812;11.762;2023-09-18T05:15:27;30.55;;;19.65;;
22160;SDS011;49035;48.812;11.762;2023-09-18T05:17:57;32.00;;;18.77;;
22160;SDS011;49035;48.812;11.762;2023-09-18T05:20:24;31.33;;;20.13;;
22160;SDS011;49035;48.812;11.762;2023-09-18T05:22:51;33.78;;;20.63;;
22160;SDS011;49035;48.812;11.762;2023-09-18T05:25:20;36.75;;;21.92;;
22160;SDS011;49035;48.812;11.762;2023-09-18T05:27:47;35.75;;;20.10;;
22160;SDS011;49035;48.812;11.762;2023-09-18T05:30:21;32.35;;;19.95;;
22160;SDS011;49035;48.812;11.762;2023-09-18T05:32:52;35.42;;;19.85;;
22160;SDS011;49035;48.812;11.762;2023-09-18T05:35:18;33.17;;;22.40;;
22160;SDS011;49035;48.812;11.762;2023-09-18T05:37:44;48.45;;;27.13;;
22160;SDS011;49035;48.812;11.762;2023-09-18T05:40:10;43.80;;;25.27;;
22160;SDS011;49035;48.812;11.762;2023-09-18T05:42:37;40.90;;;23.85;;
22160;SDS011;49035;48.812;11.762;2023-09-18T05:45:03;45.47;;;27.45;;
22160;SDS011;49035;48.812;11.762;2023-09-18T05:47:30;41.63;;;26.85;;
22160;SDS011;49035;48.812;11.762;2023-09-18T05:49:58;48.47;;;26.00;;
22160;SDS011;49035;48.812;11.762;2023-09-18T05:52:24;42.97;;;22.70;;
22160;SDS011;49035;48.812;11.762;2023-09-18T05:54:50;36.63;;;22.67;;
22160;SDS011;49035;48.812;11.762;2023-09-18T05:57:16;34.85;;;23.73;;
22160;SDS011;49035;48.812;11.762;2023-09-18T05:59:42;36.22;;;23.00;;
22160;SDS011;49035;48.812;11.762;2023-09-18T06:02:10;38.47;;;22.10;;
22160;SDS011;49035;48.812;11.762;2023-09-18T06:04:35;36.28;;;24.65;;
22160;SDS011;49035;48.812;11.762;2023-09-18T06:07:02;40.25;;;27.65;;
22160;SDS011;49035;48.812;11.762;2023-09-18T06:09:28;48.88;;;31.95;;
22160;SDS011;49035;48.812;11.762;2023-09-18T06:11:54;46.05;;;28.63;;
22160;SDS011;49035;48.812;11.762;2023-09-18T06:14:19;47.88;;;29.25;;
22160;SDS011;49035;48.812;11.762;2023-09-18T06:16:45;40.97;;;27.05;;
22160;SDS011;49035;48.812;11.762;2023-09-18T06:19:11;42.33;;;27.58;;
22160;SDS011;49035;48.812;11.762;2023-09-18T06:21:36;36.67;;;25.92;;
22160;SDS011;49035;48.812;11.762;2023-09-18T06:24:02;29.90;;;23.20;;
22160;SDS011;49035;48.812;11.762;2023-09-18T06:26:27;31.77;;;21.83;;
22160;SDS011;49035;48.812;11.762;2023-09-18T06:28:53;27.17;;;19.27;;
22160;SDS011;49035;48.812;11.762;2023-09-18T06:31:20;24.40;;;17.17;;
22160;SDS011;49035;48.812;11.762;2023-09-18T06:33:45;23.33;;;17.38;;
22160;SDS011;49035;48.812;11.762;2023-09-18T06:36:11;21.42;;;16.48;;
22160;SDS011;49035;48.812;11.762;2023-09-18T06:38:38;19.13;;;15.00;;
22160;SDS011;49035;48.812;11.762;2023-09-18T06:41:04;18.50;;;14.13;;
22160;SDS011;49035;48.812;11.762;2023-09-18T06:43:29;20.77;;;14.18;;
22160;SDS011;49035;48.812;11.762;2023-09-18T06:45:55;14.27;;;12.10;;
22160;SDS011;49035;48.812;11.762;2023-09-18T06:48:22;16.38;;;14.55;;
22160;SDS011;49035;48.812;11.762;2023-09-18T06:50:48;17.55;;;14.20;;
22160;SDS011;49035;48.812;11.762;2023-09-18T06:53:14;19.58;;;13.60;;
22160;SDS011;49035;48.812;11.762;2023-09-18T06:55:40;17.58;;;14.07;;
22160;SDS011;49035;48.812;11.762;2023-09-18T06:58:05;14.48;;;12.57;;
22160;SDS011;49035;48.812;11.762;2023-09-18T07:00:31;14.35;;;12.82;;
22160;SDS011;49035;48.812;11.762;2023-09-18T07:02:57;14.10;;;12.35;;
22160;SDS011;49035;48.812;11.762;2023-09-18T07:05:23;15.95;;;12.18;;
22160;SDS011;49035;48.812;11.762;2023-09-18T07:07:48;13.18;;;11.77;;
22160;SDS011;49035;48.812;11.762;2023-09-18T07:10:14;15.73;;;12.63;;
22160;SDS011;49035;48.812;11.762;2023-09-18T07:12:40;21.48;;;12.95;;
22160;SDS011;49035;48.812;11.762;2023-09-18T07:15:05;16.40;;;13.77;;
22160;SDS011;49035;48.812;11.762;2023-09-18T07:17:34;15.80;;;12.25;;
22160;SDS011;49035;48.812;11.762;2023-09-18T07:20:00;18.92;;;12.82;;
22160;SDS011;49035;48.812;11.762;2023-09-18T07:22:28;15.98;;;11.15;;
22160;SDS011;49035;48.812;11.762;2023-09-18T07:24:53;12.02;;;9.45;;
22160;SDS011;49035;48.812;11.762;2023-09-18T07:27:19;12.75;;;9.43;;
22160;SDS011;49035;48.812;11.762;2023-09-18T07:29:45;11.38;;;8.82;;
22160;SDS011;49035;48.812;11.762;2023-09-18T07:32:10;10.13;;;9.13;;
22160;SDS011;49035;48.812;11.762;2023-09-18T07:34:36;9.60;;;8.60;;
22160;SDS011;49035;48.812;11.762;2023-09-18T07:37:02;10.57;;;8.70;;
22160;SDS011;49035;48.812;11.762;2023-09-18T07:39:28;9.73;;;8.73;;
22160;SDS011;49035;48.812;11.762;2023-09-18T07:41:53;10.32;;;8.68;;
22160;SDS011;49035;48.812;11.762;2023-09-18T07:44:21;10.02;;;8.45;;
22160;SDS011;49035;48.812;11.762;2023-09-18T07:46:47;11.88;;;8.23;;
22160;SDS011;49035;48.812;11.762;2023-09-18T07:49:13;10.00;;;8.48;;
22160;SDS011;49035;48.812;11.762;2023-09-18T07:51:39;14.05;;;8.48;;
22160;SDS011;49035;48.812;11.762;2023-09-18T07:54:06;11.50;;;7.55;;
22160;SDS011;49035;48.812;11.762;2023-09-18T07:56:32;10.35;;;7.80;;
22160;SDS011;49035;48.812;11.762;2023-09-18T07:58:59;8.82;;;7.25;;
22160;SDS011;49035;48.812;11.762;2023-09-18T08:01:25;9.77;;;8.23;;
22160;SDS011;49035;48.812;11.762;2023-09-18T08:03:51;10.60;;;8.00;;
22160;SDS011;49035;48.812;11.762;2023-09-18T08:06:16;11.07;;;7.85;;
22160;SDS011;49035;48.812;11.762;2023-09-18T08:08:44;7.40;;;6.70;;
22160;SDS011;49035;48.812;11.762;2023-09-18T08:11:10;8.13;;;6.88;;
22160;SDS011;49035;48.812;11.762;2023-09-18T08:13:36;10.68;;;7.28;;
22160;SDS011;49035;48.812;11.762;2023-09-18T08:16:03;7.75;;;6.28;;
22160;SDS011;49035;48.812;11.762;2023-09-18T08:18:30;8.02;;;7.22;;
22160;SDS011;49035;48.812;11.762;2023-09-18T08:20:56;8.18;;;6.53;;
22160;SDS011;49035;48.812;11.762;2023-09-18T08:23:26;7.22;;;6.30;;
22160;SDS011;49035;48.812;11.762;2023-09-18T08:25:52;8.43;;;7.05;;
22160;SDS011;49035;48.812;11.762;2023-09-18T08:28:22;7.50;;;6.72;;
22160;SDS011;49035;48.812;11.762;2023-09-18T08:30:47;7.85;;;6.20;;
22160;SDS011;49035;48.812;11.762;2023-09-18T08:33:13;7.43;;;6.47;;
22160;SDS011;49035;48.812;11.762;2023-09-18T08:35:39;7.35;;;5.90;;
22160;SDS011;49035;48.812;11.762;2023-09-18T08:38:05;8.30;;;5.97;;
22160;SDS011;49035;48.812;11.762;2023-09-18T08:40:31;5.97;;;5.38;;
22160;SDS011;49035;48.812;11.762;2023-09-18T08:42:59;7.38;;;5.80;;
22160;SDS011;49035;48.812;11.762;2023-09-18T08:45:35;6.60;;;5.70;;
22160;SDS011;49035;48.812;11.762;2023-09-18T08:48:10;9.15;;;5.90;;
22160;SDS011;49035;48.812;11.762;2023-09-18T08:50:36;8.10;;;5.88;;
22160;SDS011;49035;48.812;11.762;2023-09-18T08:53:03;11.60;;;5.90;;
22160;SDS011;49035;48.812;11.762;2023-09-18T08:55:29;8.35;;;5.95;;
22160;SDS011;49035;48.812;11.762;2023-09-18T08:57:55;9.48;;;6.63;;
22160;SDS011;49035;48.812;11.762;2023-09-18T09:00:23;7.82;;;6.03;;
22160;SDS011;49035;48.812;11.762;2023-09-18T09:02:49;8.43;;;6.00;;
22160;SDS011;49035;48.812;11.762;2023-09-18T09:05:16;11.65;;;6.05;;
22160;SDS011;49035;48.812;11.762;2023-09-18T09:07:42;8.82;;;5.70;;
22160;SDS011;49035;48.812;11.762;2023-09-18T09:10:08;7.57;;;5.82;;
22160;SDS011;49035;48.812;11.762;2023-09-18T09:12:50;10.07;;;6.20;;
22160;SDS011;49035;48.812;11.762;2023-09-18T09:15:24;10.15;;;6.47;;
22160;SDS011;49035;48.812;11.762;2023-09-18T09:17:52;14.02;;;5.70;;
22160;SDS011;49035;48.812;11.762;2023-09-18T09:20:27;7.78;;;5.97;;
22160;SDS011;49035;48.812;11.762;2023-09-18T09:22:55;7.05;;;6.32;;
22160;SDS011;49035;48.812;11.762;2023-09-18T09:25:27;9.02;;;6.88;;
22160;SDS011;49035;48.812;11.762;2023-09-18T09:27:56;7.47;;;5.95;;
22160;SDS011;49035;48.812;11.762;2023-09-18T09:30:27;11.07;;;7.32;;
22160;SDS011;49035;48.812;11.762;2023-09-18T09:32:56;12.45;;;7.63;;
22160;SDS011;49035;48.812;11.762;2023-09-18T09:35:24;9.10;;;6.13;;
22160;SDS011;49035;48.812;11.762;2023-09-18T09:37:56;9.38;;;6.90;;
22160;SDS011;49035;48.812;11.762;2023-09-18T09:40:24;10.70;;;6.32;;
22160;SDS011;49035;48.812;11.762;2023-09-18T09:42:51;9.73;;;7.18;;
22160;SDS011;49035;48.812;11.762;2023-09-18T09:45:19;8.43;;;5.90;;
22160;SDS011;49035;48.812;11.762;2023-09-18T09:47:45;6.30;;;5.50;;
22160;SDS011;49035;48.812;11.762;2023-09-18T09:50:14;7.18;;;5.70;;
22160;SDS011;49035;48.812;11.762;2023-09-18T09:52:43;13.38;;;5.45;;
22160;SDS011;49035;48.812;11.762;2023-09-18T09:55:30;7.18;;;5.32;;
22160;SDS011;49035;48.812;11.762;2023-09-18T09:57:59;6.10;;;5.40;;
22160;SDS011;49035;48.812;11.762;2023-09-18T10:00:28;9.02;;;5.82;;
22160;SDS011;49035;48.812;11.762;2023-09-18T10:03:08;11.35;;;5.90;;
22160;SDS011;49035;48.812;11.762;2023-09-18T10:05:42;6.53;;;5.47;;
22160;SDS011;49035;48.812;11.762;2023-09-18T10:08:16;7.80;;;5.95;;
22160;SDS011;49035;48.812;11.762;2023-09-18T10:10:51;12.68;;;5.68;;
22160;SDS011;49035;48.812;11.762;2023-09-18T10:16:08;9.27;;;6.07;;
22160;SDS011;49035;48.812;11.762;2023-09-18T10:27:01;7.85;;;5.25;;
22160;SDS011;49035;48.812;11.762;2023-09-18T10:29:30;9.05;;;5.07;;
22160;SDS011;49035;48.812;11.762;2023-09-18T10:32:01;5.45;;;4.45;;
22160;SDS011;49035;48.812;11.762;2023-09-18T10:34:29;9.35;;;4.22;;
22160;SDS011;49035;48.812;11.762;2023-09-18T10:36:57;6.85;;;4.35;;
22160;SDS011;49035;48.812;11.762;2023-09-18T10:39:25;8.35;;;4.47;;
22160;SDS011;49035;48.812;11.762;2023-09-18T10:41:54;6.68;;;4.78;;
22160;SDS011;49035;48.812;11.762;2023-09-18T10:44:22;11.10;;;4.90;;
22160;SDS011;49035;48.812;11.762;2023-09-18T10:46:48;6.15;;;4.13;;
22160;SDS011;49035;48.812;11.762;2023-09-18T10:49:16;8.23;;;4.28;;
22160;SDS011;49035;48.812;11.762;2023-09-18T10:51:43;8.38;;;4.32;;
22160;SDS011;49035;48.812;11.762;2023-09-18T10:54:11;10.05;;;4.47;;
22160;SDS011;49035;48.812;11.762;2023-09-18T10:56:41;7.40;;;4.13;;
22160;SDS011;49035;48.812;11.762;2023-09-18T10:59:07;10.15;;;4.47;;
22160;SDS011;49035;48.812;11.762;2023-09-18T11:01:34;7.50;;;3.78;;
22160;SDS011;49035;48.812;11.762;2023-09-18T11:04:02;12.68;;;4.18;;
22160;SDS011;49035;48.812;11.762;2023-09-18T11:09:23;8.43;;;3.50;;
22160;SDS011;49035;48.812;11.762;2023-09-18T11:17:32;6.85;;;2.90;;
22160;SDS011;49035;48.812;11.762;2023-09-18T11:22:36;5.47;;;2.40;;
22160;SDS011;49035;48.812;11.762;2023-09-18T11:28:02;7.47;;;2.90;;
22160;SDS011;49035;48.812;11.762;2023-09-18T11:30:32;8.05;;;2.30;;
22160;SDS011;49035;48.812;11.762;2023-09-18T11:33:01;5.22;;;2.50;;
22160;SDS011;49035;48.812;11.762;2023-09-18T11:35:28;6.32;;;2.53;;
22160;SDS011;49035;48.812;11.762;2023-09-18T11:38:02;9.50;;;2.90;;
22160;SDS011;49035;48.812;11.762;2023-09-18T11:40:34;10.27;;;2.72;;
22160;SDS011;49035;48.812;11.762;2023-09-18T11:43:21;9.27;;;2.58;;
22160;SDS011;49035;48.812;11.762;2023-09-18T11:45:54;9.30;;;2.45;;
22160;SDS011;49035;48.812;11.762;2023-09-18T11:48:21;4.65;;;2.58;;
22160;SDS011;49035;48.812;11.762;2023-09-18T11:50:49;8.00;;;2.25;;
22160;SDS011;49035;48.812;11.762;2023-09-18T11:53:17;7.40;;;2.40;;
22160;SDS011;49035;48.812;11.762;2023-09-18T11:55:43;8.40;;;2.55;;
22160;SDS011;49035;48.812;11.762;2023-09-18T11:58:09;5.93;;;2.40;;
22160;SDS011;49035;48.812;11.762;2023-09-18T12:00:35;18.50;;;3.10;;
22160;SDS011;49035;48.812;11.762;2023-09-18T12:05:41;7.57;;;2.60;;
22160;SDS011;49035;48.812;11.762;2023-09-18T12:08:08;9.95;;;2.38;;
22160;SDS011;49035;48.812;11.762;2023-09-18T12:10:36;11.57;;;2.65;;
22160;SDS011;49035;48.812;11.762;2023-09-18T12:13:05;7.35;;;2.42;;
22160;SDS011;49035;48.812;11.762;2023-09-18T12:15:32;9.68;;;2.33;;
22160;SDS011;49035;48.812;11.762;2023-09-18T12:18:04;9.82;;;2.60;;
22160;SDS011;49035;48.812;11.762;2023-09-18T12:20:31;8.23;;;2.95;;
22160;SDS011;49035;48.812;11.762;2023-09-18T12:22:59;11.73;;;2.20;;
22160;SDS011;49035;48.812;11.762;2023-09-18T12:25:25;7.38;;;2.30;;
22160;SDS011;49035;48.812;11.762;2023-09-18T12:27:51;5.50;;;2.03;;
22160;SDS011;49035;48.812;11.762;2023-09-18T12:30:18;14.43;;;2.55;;
22160;SDS011;49035;48.812;11.762;2023-09-18T12:32:45;7.80;;;1.98;;
22160;SDS011;49035;48.812;11.762;2023-09-18T12:35:14;4.68;;;1.80;;
22160;SDS011;49035;48.812;11.762;2023-09-18T12:37:41;6.22;;;1.88;;
22160;SDS011;49035;48.812;11.762;2023-09-18T12:40:28;9.82;;;1.73;;
22160;SDS011;49035;48.812;11.762;2023-09-18T12:42:54;5.60;;;1.95;;
22160;SDS011;49035;48.812;11.762;2023-09-18T12:45:22;4.93;;;1.70;;
22160;SDS011;49035;48.812;11.762;2023-09-18T12:47:48;11.75;;;1.50;;
22160;SDS011;49035;48.812;11.762;2023-09-18T12:50:15;6.00;;;1.65;;
22160;SDS011;49035;48.812;11.762;2023-09-18T12:52:41;4.97;;;1.40;;
22160;SDS011;49035;48.812;11.762;2023-09-18T12:55:07;2.80;;;1.48;;
22160;SDS011;49035;48.812;11.762;2023-09-18T12:57:33;9.05;;;1.77;;
22160;SDS011;49035;48.812;11.762;2023-09-18T12:59:59;7.85;;;1.58;;
22160;SDS011;49035;48.812;11.762;2023-09-18T13:02:35;12.02;;;2.45;;
22160;SDS011;49035;48.812;11.762;2023-09-18T13:05:01;9.15;;;2.97;;
22160;SDS011;49035;48.812;11.762;2023-09-18T13:07:28;15.45;;;2.58;;
22160;SDS011;49035;48.812;11.762;2023-09-18T13:09:58;13.68;;;2.67;;
22160;SDS011;49035;48.812;11.762;2023-09-18T13:12:40;13.57;;;2.30;;
22160;SDS011;49035;48.812;11.762;2023-09-18T13:15:23;12.95;;;2.25;;
22160;SDS011;49035;48.812;11.762;2023-09-18T13:17:53;5.65;;;2.00;;
22160;SDS011;49035;48.812;11.762;2023-09-18T13:20:29;7.15;;;1.80;;
22160;SDS011;49035;48.812;11.762;2023-09-18T13:22:56;5.43;;;1.80;;
22160;SDS011;49035;48.812;11.762;2023-09-18T13:25:23;7.10;;;1.50;;
22160;SDS011;49035;48.812;11.762;2023-09-18T13:28:00;4.32;;;1.30;;
22160;SDS011;49035;48.812;11.762;2023-09-18T13:30:28;5.18;;;1.60;;
22160;SDS011;49035;48.812;11.762;2023-09-18T13:33:06;3.63;;;1.58;;
22160;SDS011;49035;48.812;11.762;2023-09-18T13:35:41;5.03;;;1.30;;
22160;SDS011;49035;48.812;11.762;2023-09-18T13:38:08;3.22;;;1.25;;
22160;SDS011;49035;48.812;11.762;2023-09-18T13:40:36;4.32;;;1.30;;
22160;SDS011;49035;48.812;11.762;2023-09-18T13:43:02;5.57;;;1.45;;
22160;SDS011;49035;48.812;11.762;2023-09-18T13:45:29;6.00;;;1.80;;
22160;SDS011;49035;48.812;11.762;2023-09-18T13:47:55;4.35;;;1.83;;
22160;SDS011;49035;48.812;11.762;2023-09-18T13:50:21;3.78;;;1.83;;
22160;SDS011;49035;48.812;11.762;2023-09-18T13:52:46;1.83;;;1.60;;
22160;SDS011;49035;48.812;11.762;2023-09-18T13:55:12;8.02;;;1.80;;
22160;SDS011;49035;48.812;11.762;2023-09-18T13:57:37;3.75;;;1.63;;
22160;SDS011;49035;48.812;11.762;2023-09-18T14:00:05;5.93;;;1.63;;
22160;SDS011;49035;48.812;11.762;2023-09-18T14:02:33;6.60;;;1.65;;
22160;SDS011;49035;48.812;11.762;2023-09-18T14:04:59;3.38;;;2.00;;
22160;SDS011;49035;48.812;11.762;2023-09-18T14:07:24;6.70;;;2.22;;
22160;SDS011;49035;48.812;11.762;2023-09-18T14:09:50;4.57;;;1.55;;
22160;SDS011;49035;48.812;11.762;2023-09-18T14:12:15;7.10;;;1.65;;
22160;SDS011;49035;48.812;11.762;2023-09-18T14:14:42;3.83;;;1.70;;
22160;SDS011;49035;48.812;11.762;2023-09-18T14:17:11;3.85;;;1.25;;
22160;SDS011;49035;48.812;11.762;2023-09-18T14:19:37;2.92;;;1.10;;
22160;SDS011;49035;48.812;11.762;2023-09-18T14:22:03;7.53;;;1.67;;
22160;SDS011;49035;48.812;11.762;2023-09-18T14:24:30;5.57;;;1.50;;
22160;SDS011;49035;48.812;11.762;2023-09-18T14:26:56;3.95;;;1.92;;
22160;SDS011;49035;48.812;11.762;2023-09-18T14:29:22;3.20;;;1.50;;
22160;SDS011;49035;48.812;11.762;2023-09-18T14:31:48;3.38;;;1.73;;
22160;SDS011;49035;48.812;11.762;2023-09-18T14:34:13;3.90;;;1.73;;
22160;SDS011;49035;48.812;11.762;2023-09-18T14:36:39;4.97;;;1.40;;
22160;SDS011;49035;48.812;11.762;2023-09-18T14:39:09;7.13;;;1.45;;
22160;SDS011;49035;48.812;11.762;2023-09-18T14:41:35;2.92;;;1.40;;
22160;SDS011;49035;48.812;11.762;2023-09-18T14:44:03;2.47;;;1.25;;
22160;SDS011;49035;48.812;11.762;2023-09-18T14:46:30;1.13;;;1.00;;
22160;SDS011;49035;48.812;11.762;2023-09-18T14:48:58;4.80;;;1.35;;
22160;SDS011;49035;48.812;11.762;2023-09-18T14:51:27;4.43;;;1.33;;